Time;durP1;ratioP1;P1;durP2;ratioP2;P2;SDS_P1;SDS_P2;PMS_P1;PMS_P2;Temp;Humidity;BMP_temperature;BMP_pressure;BME280_temperature;BME280_humidity;BME280_pressure;Samples;Min_cycle;Max_cycle;Signal;HPM_P1;HPM_P2
2022/03/26 00:00:22;;;;;;;118.45;63.33;;;6.10;97.80;;;;;;4932789;28;20497;-71
2022/03/26 00:02:49;;;;;;;112.30;58.03;;;6.10;97.90;;;;;;4909520;29;20063;-73
2022/03/26 00:05:15;;;;;;;114.43;60.42;;;6.10;97.70;;;;;;4921237;28;20420;-71
2022/03/26 00:07:42;;;;;;;150.05;74.05;;;6.00;97.60;;;;;;4924028;29;20059;-71
2022/03/26 00:10:08;;;;;;;140.98;69.50;;;6.00;98.80;;;;;;4924177;28;20094;-71
2022/03/26 00:12:35;;;;;;;129.98;65.90;;;6.00;99.50;;;;;;4918861;29;20102;-71
2022/03/26 00:15:01;;;;;;;133.07;68.88;;;5.90;99.60;;;;;;4921042;29;20162;-71
2022/03/26 00:17:27;;;;;;;136.07;67.13;;;5.90;99.90;;;;;;4913597;28;21066;-71
2022/03/26 00:19:53;;;;;;;127.50;63.20;;;5.90;99.90;;;;;;4916415;28;20051;-71
2022/03/26 00:22:20;;;;;;;121.35;62.10;;;5.80;99.90;;;;;;4921859;29;20414;-71
2022/03/26 00:24:46;;;;;;;123.15;61.03;;;5.80;99.90;;;;;;4932765;28;20047;-71
2022/03/26 00:27:12;;;;;;;116.47;57.85;;;5.80;99.90;;;;;;4903011;29;20114;-71
2022/03/26 00:29:37;;;;;;;117.95;58.97;;;5.80;99.90;;;;;;4937876;28;20047;-72
2022/03/26 00:32:04;;;;;;;86.65;47.40;;;5.70;99.90;;;;;;4934576;28;20395;-72
2022/03/26 00:34:31;;;;;;;86.85;46.08;;;5.70;99.90;;;;;;4915839;29;20545;-71
2022/03/26 00:36:58;;;;;;;91.78;46.03;;;5.70;99.90;;;;;;4935760;28;20537;-72
2022/03/26 00:39:24;;;;;;;115.22;54.75;;;5.60;99.90;;;;;;4931901;28;20047;-71
2022/03/26 00:41:50;;;;;;;102.35;51.47;;;5.60;99.90;;;;;;4918049;29;20724;-71
2022/03/26 00:44:20;;;;;;;111.25;55.53;;;5.50;99.90;;;;;;4923154;29;20565;-71
2022/03/26 00:46:46;;;;;;;115.47;57.13;;;5.50;99.90;;;;;;4912974;29;20050;-72
2022/03/26 00:49:13;;;;;;;110.03;55.75;;;5.50;99.90;;;;;;4929415;29;20043;-72
2022/03/26 00:51:40;;;;;;;116.70;58.83;;;5.50;99.90;;;;;;4934832;29;20107;-72
2022/03/26 00:54:08;;;;;;;113.97;57.70;;;5.50;99.90;;;;;;4936076;28;20039;-71
2022/03/26 00:56:36;;;;;;;126.38;62.70;;;5.50;99.90;;;;;;4919167;29;20512;-72
2022/03/26 00:59:02;;;;;;;120.07;59.05;;;5.50;99.90;;;;;;4906920;29;20082;-72
2022/03/26 01:01:28;;;;;;;127.40;61.65;;;5.40;99.90;;;;;;4906724;29;20133;-72
2022/03/26 01:03:54;;;;;;;122.20;58.60;;;5.40;99.90;;;;;;4928182;28;20074;-72
2022/03/26 01:06:20;;;;;;;120.78;62.38;;;5.40;99.90;;;;;;4936364;29;20796;-72
2022/03/26 01:08:46;;;;;;;126.15;62.05;;;5.40;99.90;;;;;;4922717;29;20055;-72
2022/03/26 01:11:12;;;;;;;120.07;59.97;;;5.40;99.90;;;;;;4919583;29;20567;-72
2022/03/26 01:13:39;;;;;;;114.35;57.22;;;5.30;99.90;;;;;;4935519;29;20056;-71
2022/03/26 01:16:06;;;;;;;124.32;63.20;;;5.30;99.90;;;;;;4922900;29;20134;-71
2022/03/26 01:18:33;;;;;;;132.73;64.30;;;5.30;99.90;;;;;;4916507;29;20051;-71
2022/03/26 01:21:00;;;;;;;137.00;64.60;;;5.30;99.90;;;;;;4930385;29;20051;-71
2022/03/26 01:23:26;;;;;;;129.02;62.70;;;5.20;99.90;;;;;;4938749;28;20053;-72
2022/03/26 01:25:52;;;;;;;131.10;64.88;;;5.20;99.90;;;;;;4902506;29;20613;-72
2022/03/26 01:28:18;;;;;;;133.93;64.72;;;5.20;99.90;;;;;;4920952;29;20131;-71
2022/03/26 01:30:45;;;;;;;152.63;67.72;;;5.10;99.90;;;;;;4901742;29;20044;-71
2022/03/26 01:33:11;;;;;;;133.23;65.30;;;5.10;99.90;;;;;;4919634;29;20077;-72
2022/03/26 01:35:37;;;;;;;137.88;67.28;;;5.10;99.90;;;;;;4901349;28;20487;-72
2022/03/26 01:38:05;;;;;;;141.80;66.80;;;5.10;99.90;;;;;;4916908;29;20047;-71
2022/03/26 01:40:32;;;;;;;136.00;64.10;;;5.00;99.90;;;;;;4919824;29;20122;-72
2022/03/26 01:42:59;;;;;;;130.55;63.10;;;5.00;99.90;;;;;;4931830;28;20106;-71
2022/03/26 01:45:27;;;;;;;135.90;63.92;;;5.00;99.90;;;;;;4918872;29;20066;-72
2022/03/26 01:47:54;;;;;;;136.55;64.68;;;5.00;99.90;;;;;;4933866;28;20055;-72
2022/03/26 01:50:20;;;;;;;131.80;64.53;;;5.00;99.90;;;;;;4936392;28;20128;-72
2022/03/26 01:52:46;;;;;;;142.73;68.07;;;5.00;99.90;;;;;;4900740;29;20503;-71
2022/03/26 01:55:12;;;;;;;142.68;68.88;;;4.90;99.90;;;;;;4930612;28;20521;-71
2022/03/26 01:57:38;;;;;;;153.75;72.20;;;4.90;99.90;;;;;;4934637;28;20051;-71
2022/03/26 02:00:08;;;;;;;145.23;67.28;;;4.90;99.90;;;;;;4935673;29;20428;-71
2022/03/26 02:02:34;;;;;;;157.75;71.30;;;4.80;99.90;;;;;;4932139;28;20066;-72
2022/03/26 02:05:00;;;;;;;152.38;71.07;;;4.80;99.90;;;;;;4911606;29;20087;-71
2022/03/26 02:07:26;;;;;;;165.68;78.13;;;4.70;99.90;;;;;;4901383;29;20410;-72
2022/03/26 02:09:52;;;;;;;141.65;70.60;;;4.70;99.90;;;;;;4922395;29;20043;-72
2022/03/26 02:12:28;;;;;;;152.27;73.80;;;4.70;99.90;;;;;;4899214;29;20846;-71
2022/03/26 02:14:55;;;;;;;162.63;77.32;;;4.70;99.90;;;;;;4932006;29;20130;-72
2022/03/26 02:17:21;;;;;;;166.07;79.95;;;4.70;99.90;;;;;;4914434;29;20089;-72
2022/03/26 02:19:55;;;;;;;187.65;86.28;;;4.70;99.90;;;;;;4926248;28;20653;-72
2022/03/26 02:22:22;;;;;;;193.45;86.93;;;4.70;99.90;;;;;;4918313;29;20051;-72
2022/03/26 02:24:48;;;;;;;172.27;82.13;;;4.70;99.90;;;;;;4914468;29;20055;-72
2022/03/26 02:27:15;;;;;;;165.32;80.28;;;4.70;99.90;;;;;;4934434;28;20075;-71
2022/03/26 02:29:41;;;;;;;165.95;79.78;;;4.60;99.90;;;;;;4930201;28;20137;-72
2022/03/26 02:32:07;;;;;;;182.80;83.15;;;4.70;99.90;;;;;;4919510;29;20129;-72
2022/03/26 02:34:33;;;;;;;172.23;80.20;;;4.60;99.90;;;;;;4914483;29;20051;-72
2022/03/26 02:36:59;;;;;;;173.45;82.28;;;4.60;99.90;;;;;;4900120;29;20070;-71
2022/03/26 02:39:27;;;;;;;167.43;78.72;;;4.60;99.90;;;;;;4924345;28;20081;-72
2022/03/26 02:41:52;;;;;;;173.88;82.55;;;4.50;99.90;;;;;;4933679;28;20122;-72
2022/03/26 02:44:18;;;;;;;157.45;76.88;;;4.60;99.90;;;;;;4937487;28;20052;-71
2022/03/26 02:46:45;;;;;;;165.57;76.45;;;4.50;99.90;;;;;;4920702;29;20054;-72
2022/03/26 02:49:15;;;;;;;143.10;73.22;;;4.50;99.90;;;;;;4923155;29;20398;-72
2022/03/26 02:51:42;;;;;;;152.10;73.53;;;4.50;99.90;;;;;;4919990;29;20062;-72
2022/03/26 02:54:18;;;;;;;144.20;71.10;;;4.50;99.90;;;;;;4932304;29;20063;-72
2022/03/26 02:56:48;;;;;;;138.75;71.13;;;4.50;99.90;;;;;;4932980;29;22180;-72
2022/03/26 02:59:15;;;;;;;135.55;66.60;;;4.50;99.90;;;;;;4915960;29;20105;-72
2022/03/26 03:01:41;;;;;;;130.27;63.28;;;4.50;99.90;;;;;;4921956;28;20079;-72
2022/03/26 03:04:07;;;;;;;116.95;59.65;;;4.40;99.90;;;;;;4936462;28;20446;-72
2022/03/26 03:06:34;;;;;;;106.93;57.08;;;4.40;99.90;;;;;;4945003;28;20094;-72
2022/03/26 03:09:05;;;;;;;108.13;56.78;;;4.30;99.90;;;;;;4939673;29;20051;-72
2022/03/26 03:11:32;;;;;;;105.18;57.00;;;4.30;99.90;;;;;;4901060;29;20094;-72
2022/03/26 03:13:57;;;;;;;103.15;54.13;;;4.20;99.90;;;;;;4931179;29;20051;-72
2022/03/26 03:16:23;;;;;;;132.20;65.43;;;4.20;99.90;;;;;;4921857;28;20039;-72
2022/03/26 03:18:50;;;;;;;133.07;65.68;;;4.20;99.90;;;;;;4922402;29;20070;-72
2022/03/26 03:21:16;;;;;;;127.57;63.00;;;4.20;99.90;;;;;;4923045;29;22636;-72
2022/03/26 03:23:42;;;;;;;149.40;66.47;;;4.20;99.90;;;;;;4931029;29;20047;-72
2022/03/26 03:26:08;;;;;;;143.52;67.72;;;4.10;99.90;;;;;;4906716;29;20079;-72
2022/03/26 03:28:34;;;;;;;123.72;61.40;;;4.10;99.90;;;;;;4918933;29;20055;-72
2022/03/26 03:31:00;;;;;;;138.85;66.30;;;4.10;99.90;;;;;;4933087;28;20051;-72
2022/03/26 03:33:26;;;;;;;144.95;69.00;;;4.00;99.90;;;;;;4903674;29;20079;-71
2022/03/26 03:35:53;;;;;;;134.77;66.18;;;4.10;99.90;;;;;;4928738;29;20123;-72
2022/03/26 03:38:19;;;;;;;130.98;65.15;;;4.10;99.90;;;;;;4923091;29;20115;-72
2022/03/26 03:40:44;;;;;;;144.65;70.13;;;4.10;99.90;;;;;;4935019;28;20491;-72
2022/03/26 03:43:10;;;;;;;158.73;74.15;;;4.00;99.90;;;;;;4925232;29;20590;-71
2022/03/26 03:45:36;;;;;;;126.45;64.05;;;4.20;99.90;;;;;;4923454;29;20055;-72
2022/03/26 03:48:02;;;;;;;114.72;60.80;;;4.10;99.90;;;;;;4917111;28;20055;-72
2022/03/26 03:50:28;;;;;;;122.22;62.95;;;4.10;99.90;;;;;;4929950;29;22230;-72
2022/03/26 03:52:54;;;;;;;121.25;62.00;;;4.10;99.90;;;;;;4906300;29;20047;-72
2022/03/26 03:55:21;;;;;;;118.00;59.85;;;4.00;99.90;;;;;;4891176;29;20051;-72
2022/03/26 03:57:47;;;;;;;112.18;58.40;;;4.10;99.90;;;;;;4924617;29;20142;-72
2022/03/26 04:00:15;;;;;;;107.90;57.53;;;4.00;99.90;;;;;;4915546;29;20047;-72
2022/03/26 04:02:42;;;;;;;93.57;52.90;;;4.00;99.90;;;;;;4923348;29;20171;-71
2022/03/26 04:05:13;;;;;;;119.50;58.30;;;4.00;99.90;;;;;;4918891;29;20066;-72
2022/03/26 04:07:40;;;;;;;100.03;54.78;;;4.00;99.90;;;;;;4930921;29;20043;-71
2022/03/26 04:10:10;;;;;;;95.22;50.58;;;3.90;99.90;;;;;;4906353;29;20397;-71
2022/03/26 04:12:41;;;;;;;86.22;50.33;;;3.80;99.90;;;;;;4939394;29;21005;-72
2022/03/26 04:15:08;;;;;;;86.53;49.28;;;3.70;99.90;;;;;;4917750;29;20050;-72
2022/03/26 04:17:35;;;;;;;95.55;50.35;;;3.70;99.90;;;;;;4918450;29;20046;-72
2022/03/26 04:20:08;;;;;;;116.45;51.85;;;3.60;99.90;;;;;;4935835;29;20884;-72
2022/03/26 04:22:35;;;;;;;118.78;52.45;;;3.60;99.90;;;;;;4935104;29;20063;-72
2022/03/26 04:25:01;;;;;;;132.88;55.53;;;3.60;99.90;;;;;;4907234;29;20060;-72
2022/03/26 04:27:27;;;;;;;120.10;55.42;;;3.50;99.90;;;;;;4918954;29;20199;-72
2022/03/26 04:29:53;;;;;;;107.95;55.38;;;3.50;99.90;;;;;;4932866;28;20103;-72
2022/03/26 04:32:19;;;;;;;134.52;57.58;;;3.40;99.90;;;;;;4932519;28;20047;-72
2022/03/26 04:34:45;;;;;;;134.30;60.20;;;3.40;99.90;;;;;;4909193;29;20580;-72
2022/03/26 04:37:11;;;;;;;130.27;56.25;;;3.40;99.90;;;;;;4908017;29;20047;-72
2022/03/26 04:39:37;;;;;;;159.93;56.78;;;3.40;99.90;;;;;;4932006;28;20424;-72
2022/03/26 04:42:03;;;;;;;93.10;53.15;;;3.30;99.90;;;;;;4923602;29;20043;-72
2022/03/26 04:44:29;;;;;;;92.20;52.50;;;3.30;99.90;;;;;;4922477;29;20158;-72
2022/03/26 04:46:55;;;;;;;89.70;50.00;;;3.30;99.90;;;;;;4917184;29;20823;-72
2022/03/26 04:49:20;;;;;;;89.82;52.70;;;3.30;99.90;;;;;;4903948;29;20059;-72
2022/03/26 04:51:46;;;;;;;93.38;52.40;;;3.30;99.90;;;;;;4890480;29;20123;-72
2022/03/26 04:54:12;;;;;;;87.22;50.42;;;3.30;99.90;;;;;;4920950;28;20069;-72
2022/03/26 04:56:38;;;;;;;89.43;51.67;;;3.30;99.90;;;;;;4901848;29;20072;-72
2022/03/26 04:59:04;;;;;;;83.53;49.25;;;3.30;99.90;;;;;;4920905;29;20059;-72
2022/03/26 05:01:30;;;;;;;85.85;50.65;;;3.30;99.90;;;;;;4934101;29;20395;-72
2022/03/26 05:03:56;;;;;;;80.13;48.22;;;3.30;99.90;;;;;;4940254;28;20066;-72
2022/03/26 05:06:22;;;;;;;82.05;47.50;;;3.30;99.90;;;;;;4887708;29;20063;-72
2022/03/26 05:08:51;;;;;;;86.57;50.25;;;3.30;99.90;;;;;;4906011;28;20059;-72
2022/03/26 05:11:18;;;;;;;75.60;45.70;;;3.30;99.90;;;;;;4935828;29;20043;-72
2022/03/26 05:13:45;;;;;;;71.25;44.55;;;3.30;99.90;;;;;;4921930;29;20534;-72
2022/03/26 05:16:11;;;;;;;68.82;43.53;;;3.20;99.90;;;;;;4921290;29;20047;-72
2022/03/26 05:18:37;;;;;;;69.85;44.63;;;3.20;99.90;;;;;;4931551;29;20458;-72
2022/03/26 05:21:02;;;;;;;87.50;46.90;;;3.10;99.90;;;;;;4931100;28;20050;-72
2022/03/26 05:23:28;;;;;;;71.13;43.58;;;3.10;99.90;;;;;;4933636;29;20467;-72
2022/03/26 05:25:55;;;;;;;64.00;41.75;;;3.10;99.90;;;;;;4912085;29;20162;-72
2022/03/26 05:28:20;;;;;;;67.03;42.00;;;3.10;99.90;;;;;;4934105;28;20134;-71
2022/03/26 05:30:51;;;;;;;71.53;44.30;;;3.00;99.90;;;;;;4909938;29;20081;-71
2022/03/26 05:33:17;;;;;;;66.25;41.47;;;3.10;99.90;;;;;;4931872;29;20050;-72
2022/03/26 05:35:43;;;;;;;63.40;41.75;;;3.00;99.90;;;;;;4917177;29;20055;-72
2022/03/26 05:38:10;;;;;;;74.72;45.78;;;3.00;99.90;;;;;;4933032;29;20098;-72
2022/03/26 05:40:36;;;;;;;89.47;49.25;;;3.00;99.90;;;;;;4919996;29;20062;-72
2022/03/26 05:43:02;;;;;;;90.50;49.08;;;3.00;99.90;;;;;;4926925;29;20135;-72
2022/03/26 05:45:29;;;;;;;98.43;51.03;;;3.00;99.90;;;;;;4920632;29;20065;-72
2022/03/26 05:48:01;;;;;;;101.60;52.65;;;3.00;99.90;;;;;;4917847;29;20044;-72
2022/03/26 05:50:29;;;;;;;88.45;48.70;;;3.10;99.90;;;;;;4927128;28;20054;-72
2022/03/26 05:52:55;;;;;;;90.75;49.30;;;3.10;99.90;;;;;;4916083;29;20154;-72
2022/03/26 05:55:21;;;;;;;90.10;51.20;;;3.20;99.90;;;;;;4903453;29;20050;-72
2022/03/26 05:57:47;;;;;;;96.57;52.53;;;3.10;99.90;;;;;;4902860;29;20433;-72
2022/03/26 06:00:14;;;;;;;105.07;54.50;;;3.10;99.90;;;;;;4913676;29;20055;-72
2022/03/26 06:02:39;;;;;;;105.47;54.40;;;3.10;99.90;;;;;;4914797;29;20103;-72
2022/03/26 06:05:06;;;;;;;95.95;52.25;;;3.10;99.90;;;;;;4933292;28;20055;-72
2022/03/26 06:07:31;;;;;;;103.03;52.65;;;3.20;99.90;;;;;;4930179;28;20066;-72
2022/03/26 06:09:57;;;;;;;104.47;54.83;;;3.20;99.90;;;;;;4914321;29;20048;-72
2022/03/26 06:12:24;;;;;;;102.68;52.17;;;3.20;99.90;;;;;;4901081;29;20047;-72
2022/03/26 06:14:49;;;;;;;102.50;52.92;;;3.20;99.90;;;;;;4934164;29;20395;-72
2022/03/26 06:17:15;;;;;;;98.20;52.15;;;3.20;99.90;;;;;;4909517;29;20106;-72
2022/03/26 06:19:42;;;;;;;106.97;54.95;;;3.30;99.90;;;;;;4929910;29;20058;-72
2022/03/26 06:22:08;;;;;;;111.05;57.67;;;3.30;99.90;;;;;;4913289;29;20058;-72
2022/03/26 06:24:35;;;;;;;116.38;60.40;;;3.40;99.90;;;;;;4921412;29;20051;-72
2022/03/26 06:27:01;;;;;;;113.75;58.55;;;3.30;99.90;;;;;;4926428;28;20075;-72
2022/03/26 06:29:27;;;;;;;106.68;53.38;;;3.30;99.90;;;;;;4915619;29;20151;-72
2022/03/26 06:31:53;;;;;;;101.25;51.60;;;3.40;99.90;;;;;;4917970;29;20075;-72
2022/03/26 06:34:19;;;;;;;116.55;57.42;;;3.50;99.90;;;;;;4925908;29;20161;-72
2022/03/26 06:36:45;;;;;;;121.45;57.40;;;3.50;99.90;;;;;;4906854;29;20047;-72
2022/03/26 06:39:11;;;;;;;149.07;66.53;;;3.50;99.90;;;;;;4925071;29;20133;-72
2022/03/26 06:41:39;;;;;;;126.53;61.63;;;3.50;99.90;;;;;;4894173;29;24491;-72
2022/03/26 06:44:07;;;;;;;148.38;68.72;;;3.70;99.90;;;;;;4905928;29;20093;-72
2022/03/26 06:46:34;;;;;;;139.13;63.15;;;3.70;99.90;;;;;;4896054;29;20146;-72
2022/03/26 06:49:01;;;;;;;153.25;68.72;;;3.70;99.90;;;;;;4929242;28;20490;-72
2022/03/26 06:51:26;;;;;;;127.05;61.50;;;3.80;99.90;;;;;;4912603;28;20058;-72
2022/03/26 06:53:52;;;;;;;117.20;59.30;;;3.90;99.90;;;;;;4914983;29;20051;-72
2022/03/26 06:56:18;;;;;;;123.53;61.08;;;3.90;99.90;;;;;;4910945;29;20058;-72
2022/03/26 06:58:44;;;;;;;155.13;68.80;;;4.00;99.90;;;;;;4928476;29;20058;-72
2022/03/26 07:01:11;;;;;;;142.40;68.95;;;4.10;99.90;;;;;;4911792;29;20052;-72
2022/03/26 07:03:36;;;;;;;168.90;73.13;;;4.10;99.90;;;;;;4933508;28;20488;-72
2022/03/26 07:06:04;;;;;;;175.02;76.30;;;4.20;99.90;;;;;;4893640;29;20047;-72
2022/03/26 07:08:30;;;;;;;196.95;80.40;;;4.30;99.90;;;;;;4925364;29;20102;-72
2022/03/26 07:10:56;;;;;;;177.90;77.63;;;4.40;99.90;;;;;;4927954;29;20043;-72
2022/03/26 07:13:22;;;;;;;171.18;76.43;;;4.40;99.90;;;;;;4935376;29;20070;-72
2022/03/26 07:15:48;;;;;;;166.70;73.40;;;4.50;99.90;;;;;;4903565;29;20059;-72
2022/03/26 07:18:15;;;;;;;180.20;75.13;;;4.60;99.90;;;;;;4899151;29;20096;-72
2022/03/26 07:20:41;;;;;;;180.80;75.35;;;4.70;99.90;;;;;;4899400;29;20043;-73
2022/03/26 07:23:07;;;;;;;195.05;81.20;;;4.80;99.90;;;;;;4931383;29;20047;-72
2022/03/26 07:25:33;;;;;;;216.70;83.78;;;4.90;99.90;;;;;;4907148;29;21047;-72
2022/03/26 07:28:00;;;;;;;206.13;81.00;;;5.10;99.90;;;;;;4928569;28;20051;-72
2022/03/26 07:30:26;;;;;;;228.55;85.25;;;5.20;99.90;;;;;;4884973;29;20048;-72
2022/03/26 07:32:52;;;;;;;199.18;81.07;;;5.30;99.90;;;;;;4943555;28;20058;-72
2022/03/26 07:35:17;;;;;;;203.90;80.15;;;5.50;99.90;;;;;;4911573;29;20965;-72
2022/03/26 07:37:43;;;;;;;202.18;82.15;;;5.50;99.90;;;;;;4899888;29;20177;-73
2022/03/26 07:40:10;;;;;;;202.75;83.25;;;5.70;99.90;;;;;;4901764;28;20047;-72
2022/03/26 07:42:36;;;;;;;223.85;86.45;;;5.80;99.90;;;;;;4928693;28;20697;-72
2022/03/26 07:45:03;;;;;;;216.20;87.20;;;5.90;99.90;;;;;;4928566;29;20099;-72
2022/03/26 07:47:29;;;;;;;236.02;87.93;;;6.10;99.90;;;;;;4927029;28;20066;-73
2022/03/26 07:49:55;;;;;;;205.85;83.93;;;6.20;99.90;;;;;;4929307;28;20044;-73
2022/03/26 07:52:21;;;;;;;215.27;85.60;;;6.40;99.90;;;;;;4926414;29;20501;-72
2022/03/26 07:54:47;;;;;;;247.73;90.57;;;6.60;99.90;;;;;;4901014;29;20134;-72
2022/03/26 07:57:13;;;;;;;239.70;88.03;;;6.70;99.90;;;;;;4909023;29;20383;-73
2022/03/26 07:59:39;;;;;;;180.20;78.43;;;7.00;99.90;;;;;;4900106;29;20047;-73
2022/03/26 08:02:05;;;;;;;183.00;72.95;;;7.20;99.90;;;;;;4922366;29;20039;-73
2022/03/26 08:04:31;;;;;;;154.02;67.88;;;7.40;99.90;;;;;;4902699;29;20109;-73
2022/03/26 08:06:56;;;;;;;149.57;67.22;;;7.70;99.90;;;;;;4917896;29;20047;-73
2022/03/26 08:09:22;;;;;;;147.65;68.55;;;7.90;99.90;;;;;;4914715;28;20051;-73
2022/03/26 08:11:48;;;;;;;147.93;67.13;;;8.20;99.90;;;;;;4927676;28;20047;-73
2022/03/26 08:14:14;;;;;;;159.40;69.22;;;8.40;99.90;;;;;;4934359;28;20443;-74
2022/03/26 08:16:40;;;;;;;152.98;71.43;;;8.60;99.90;;;;;;4932011;29;20131;-74
2022/03/26 08:19:06;;;;;;;144.48;67.13;;;8.80;99.90;;;;;;4903061;29;20056;-74
2022/03/26 08:21:35;;;;;;;143.80;65.82;;;8.90;99.90;;;;;;4912523;29;20075;-73
2022/03/26 08:24:02;;;;;;;156.32;68.55;;;9.10;99.90;;;;;;4944375;28;20051;-73
2022/03/26 08:26:29;;;;;;;143.23;65.53;;;9.30;99.90;;;;;;4931608;29;20497;-73
2022/03/26 08:28:59;;;;;;;126.03;63.05;;;9.50;99.90;;;;;;4914237;29;20495;-73
2022/03/26 08:31:28;;;;;;;131.95;62.63;;;9.60;99.90;;;;;;4927084;29;20098;-74
2022/03/26 08:33:54;;;;;;;127.38;61.92;;;9.80;99.90;;;;;;4928903;28;20044;-74
2022/03/26 08:36:20;;;;;;;115.47;57.70;;;9.90;99.90;;;;;;4927303;29;20114;-74
2022/03/26 08:38:50;;;;;;;120.15;60.55;;;10.10;99.90;;;;;;4895467;29;20549;-74
2022/03/26 08:41:19;;;;;;;114.05;59.05;;;10.20;99.90;;;;;;4915412;29;20074;-74
2022/03/26 08:43:46;;;;;;;121.70;59.10;;;10.40;99.90;;;;;;4931101;28;20114;-74
2022/03/26 08:46:12;;;;;;;106.57;56.30;;;10.50;99.90;;;;;;4901178;29;20514;-75
2022/03/26 08:48:38;;;;;;;101.30;53.28;;;10.70;99.90;;;;;;4911019;29;20141;-75
2022/03/26 08:51:04;;;;;;;93.25;49.13;;;10.90;99.90;;;;;;4916239;29;20051;-75
2022/03/26 08:53:31;;;;;;;79.70;45.97;;;11.00;99.90;;;;;;4923519;29;20047;-75
2022/03/26 08:55:57;;;;;;;85.25;47.58;;;11.20;99.90;;;;;;4921468;29;22113;-74
2022/03/26 08:58:23;;;;;;;92.38;49.80;;;11.40;99.90;;;;;;4900130;29;20550;-74
2022/03/26 09:00:51;;;;;;;81.47;44.90;;;11.60;99.90;;;;;;4914508;29;20055;-74
2022/03/26 09:03:20;;;;;;;76.70;44.17;;;11.70;99.90;;;;;;4912365;29;20055;-74
2022/03/26 09:05:50;;;;;;;72.65;43.08;;;11.90;99.90;;;;;;4913202;29;20075;-74
2022/03/26 09:08:16;;;;;;;71.85;41.53;;;12.10;99.90;;;;;;4932055;28;20043;-74
2022/03/26 09:10:43;;;;;;;68.40;41.03;;;12.30;99.90;;;;;;4899344;29;20122;-74
2022/03/26 09:13:10;;;;;;;67.78;41.10;;;12.50;99.90;;;;;;4930361;29;20075;-74
2022/03/26 09:15:36;;;;;;;62.58;38.53;;;12.60;99.90;;;;;;4925700;28;20047;-74
2022/03/26 09:18:02;;;;;;;63.20;38.50;;;12.80;99.90;;;;;;4932308;28;20054;-74
2022/03/26 09:20:29;;;;;;;62.72;38.33;;;13.00;99.90;;;;;;4915789;29;20055;-73
2022/03/26 09:22:55;;;;;;;59.35;35.17;;;13.10;99.90;;;;;;4934352;29;20052;-73
2022/03/26 09:25:21;;;;;;;54.33;32.45;;;13.30;99.90;;;;;;4899333;29;20047;-74
2022/03/26 09:27:48;;;;;;;50.65;31.02;;;13.40;99.90;;;;;;4882965;29;20062;-74
2022/03/26 09:30:15;;;;;;;47.22;28.42;;;13.50;99.90;;;;;;4915805;29;20043;-74
2022/03/26 09:32:41;;;;;;;43.47;28.58;;;13.60;99.90;;;;;;4925632;28;20048;-74
2022/03/26 09:35:08;;;;;;;45.83;29.05;;;13.80;99.90;;;;;;4914979;29;20042;-73
2022/03/26 09:37:34;;;;;;;36.60;23.98;;;13.90;99.90;;;;;;4920986;28;20134;-73
2022/03/26 09:40:02;;;;;;;42.33;27.13;;;14.00;99.90;;;;;;4902287;29;20118;-73
2022/03/26 09:42:29;;;;;;;42.63;25.33;;;14.10;99.90;;;;;;4916966;28;20054;-71
2022/03/26 09:44:57;;;;;;;37.22;23.30;;;14.20;99.90;;;;;;4928918;28;20402;-70
2022/03/26 09:47:23;;;;;;;37.80;24.00;;;14.30;99.90;;;;;;4928695;28;20134;-71
2022/03/26 09:49:49;;;;;;;35.97;22.70;;;14.30;99.90;;;;;;4907990;28;20387;-71
2022/03/26 09:52:15;;;;;;;29.70;20.23;;;14.50;99.90;;;;;;4919582;28;20047;-71
2022/03/26 09:54:41;;;;;;;27.75;17.63;;;14.60;99.90;;;;;;4915332;28;20079;-71
2022/03/26 09:57:07;;;;;;;36.15;19.98;;;14.70;99.90;;;;;;4923949;29;20138;-71
2022/03/26 09:59:33;;;;;;;25.38;16.90;;;14.80;99.90;;;;;;4903277;29;20086;-72
2022/03/26 10:01:59;;;;;;;24.17;15.50;;;14.90;99.90;;;;;;4918171;29;20559;-71
2022/03/26 10:04:35;;;;;;;26.20;15.00;;;15.10;99.80;;;;;;4933538;29;20051;-71
2022/03/26 10:07:00;;;;;;;24.10;13.88;;;15.20;98.70;;;;;;4932176;29;20625;-71
2022/03/26 10:09:41;;;;;;;26.30;15.45;;;15.20;97.50;;;;;;4907585;29;20059;-71
2022/03/26 10:12:17;;;;;;;23.75;15.23;;;15.30;97.60;;;;;;4934188;29;20040;-71
2022/03/26 10:14:51;;;;;;;25.67;15.63;;;15.40;96.90;;;;;;4949597;28;20047;-71
2022/03/26 10:17:32;;;;;;;22.80;15.25;;;15.50;96.30;;;;;;4932532;29;20606;-71
2022/03/26 10:20:00;;;;;;;26.13;16.15;;;15.60;96.10;;;;;;4918560;29;20589;-71
2022/03/26 10:22:35;;;;;;;23.63;15.88;;;15.80;95.40;;;;;;4928096;29;20053;-70
2022/03/26 10:25:09;;;;;;;22.98;15.05;;;15.80;93.90;;;;;;4908510;29;20050;-71
2022/03/26 10:27:46;;;;;;;19.75;13.45;;;15.90;93.50;;;;;;4915880;29;20083;-70
2022/03/26 10:33:21;;;;;;;19.73;12.18;;;16.00;91.90;;;;;;4928959;29;20054;-70
2022/03/26 10:36:00;;;;;;;19.25;11.40;;;16.00;91.40;;;;;;4928382;29;20097;-71
2022/03/26 10:38:38;;;;;;;15.10;9.23;;;16.20;91.10;;;;;;4924557;28;20051;-70
2022/03/26 10:41:07;;;;;;;13.73;8.57;;;16.30;90.50;;;;;;4898944;29;20066;-71
2022/03/26 10:43:34;;;;;;;12.40;8.13;;;16.40;90.00;;;;;;4915325;29;20054;-70
2022/03/26 10:46:01;;;;;;;13.52;8.35;;;16.40;88.90;;;;;;4907241;29;20051;-71
2022/03/26 10:48:36;;;;;;;12.18;8.10;;;16.60;88.90;;;;;;4913444;29;20695;-70
2022/03/26 10:51:06;;;;;;;11.77;8.13;;;16.70;85.60;;;;;;4923688;29;20613;-70
2022/03/26 10:53:40;;;;;;;11.75;8.65;;;16.70;84.90;;;;;;4925887;29;20047;-70
2022/03/26 10:56:08;;;;;;;14.35;9.25;;;16.70;84.90;;;;;;4922296;28;20040;-70
2022/03/26 10:58:36;;;;;;;10.50;7.53;;;16.80;83.40;;;;;;4919765;29;20926;-70
2022/03/26 11:01:03;;;;;;;10.10;7.00;;;16.80;82.30;;;;;;4908893;29;20130;-70
2022/03/26 11:03:29;;;;;;;10.15;6.75;;;16.80;80.80;;;;;;4934454;28;20062;-70
2022/03/26 11:05:56;;;;;;;11.13;6.72;;;16.90;81.00;;;;;;4943783;28;20692;-70
2022/03/26 11:08:32;;;;;;;8.75;6.50;;;16.90;79.30;;;;;;4920563;29;20698;-70
2022/03/26 11:11:01;;;;;;;10.23;6.38;;;16.90;79.20;;;;;;4930278;28;20462;-69
2022/03/26 11:13:29;;;;;;;9.38;6.05;;;17.00;78.80;;;;;;4918124;29;20054;-70
2022/03/26 11:15:59;;;;;;;9.48;6.18;;;17.10;77.90;;;;;;4933659;29;20363;-70
2022/03/26 11:18:46;;;;;;;8.65;4.97;;;17.10;77.30;;;;;;4913660;29;20051;-70
2022/03/26 11:21:32;;;;;;;8.75;4.50;;;17.10;77.10;;;;;;4927150;28;20055;-70
2022/03/26 11:24:00;;;;;;;6.90;4.60;;;17.20;76.60;;;;;;4932463;29;20482;-69
2022/03/26 11:26:38;;;;;;;8.77;4.32;;;17.20;76.20;;;;;;4927462;28;20944;-70
2022/03/26 11:29:14;;;;;;;6.03;3.83;;;17.30;76.00;;;;;;4925013;28;20051;-69
2022/03/26 11:31:50;;;;;;;10.02;4.10;;;17.20;75.40;;;;;;4927166;28;20043;-69
2022/03/26 11:34:18;;;;;;;7.55;4.20;;;17.20;75.00;;;;;;4897874;29;20051;-69
2022/03/26 11:36:44;;;;;;;8.73;4.95;;;17.40;74.80;;;;;;4927013;28;20102;-69
2022/03/26 11:39:18;;;;;;;8.25;4.50;;;17.50;75.40;;;;;;4910591;29;20057;-69
2022/03/26 11:41:45;;;;;;;7.47;5.35;;;17.70;75.30;;;;;;4925080;29;20082;-69
2022/03/26 11:44:13;;;;;;;7.15;4.78;;;17.90;74.80;;;;;;4924737;29;20518;-69
2022/03/26 11:52:27;;;;;;;8.60;4.60;;;18.20;71.40;;;;;;4925046;29;20134;-69
2022/03/26 11:55:11;;;;;;;8.20;5.10;;;18.00;71.20;;;;;;4930138;28;20055;-69
2022/03/26 11:57:37;;;;;;;8.55;5.50;;;17.80;70.90;;;;;;4912201;29;20074;-69
2022/03/26 12:00:11;;;;;;;9.05;6.38;;;17.60;71.30;;;;;;4911202;28;20083;-69
2022/03/26 12:02:46;;;;;;;9.68;6.57;;;17.60;74.40;;;;;;4910469;29;20126;-69
2022/03/26 12:08:38;;;;;;;8.63;5.95;;;17.70;74.80;;;;;;4924460;29;20047;-69
2022/03/26 12:11:04;;;;;;;11.23;6.10;;;18.00;76.00;;;;;;4924428;29;20043;-69
2022/03/26 12:13:34;;;;;;;8.32;5.43;;;18.00;74.60;;;;;;4928376;28;20051;-69
2022/03/26 12:16:07;;;;;;;8.40;5.53;;;17.90;74.30;;;;;;4918255;29;20058;-69
2022/03/26 12:18:35;;;;;;;10.52;5.97;;;18.00;74.90;;;;;;4925885;29;20126;-69
2022/03/26 12:21:21;;;;;;;8.45;4.95;;;18.10;75.30;;;;;;4929255;29;20056;-69
2022/03/26 12:23:48;;;;;;;11.15;4.10;;;18.10;75.00;;;;;;4927998;29;20047;-69
2022/03/26 12:26:14;;;;;;;7.32;4.22;;;18.20;75.20;;;;;;4911910;29;20047;-70
2022/03/26 12:28:41;;;;;;;7.65;4.75;;;18.20;75.00;;;;;;4932065;29;20069;-69
2022/03/26 12:31:10;;;;;;;8.20;4.90;;;18.00;74.30;;;;;;4914945;29;20047;-69
2022/03/26 12:33:47;;;;;;;7.32;5.00;;;17.70;74.40;;;;;;4905890;28;20554;-69
2022/03/26 12:36:18;;;;;;;8.20;5.72;;;17.50;74.70;;;;;;4910457;29;20505;-70
2022/03/26 12:38:50;;;;;;;9.77;5.35;;;17.30;75.40;;;;;;4929197;29;20051;-69
2022/03/26 12:41:17;;;;;;;9.93;5.50;;;17.00;76.10;;;;;;4893517;29;20134;-69
2022/03/26 12:43:56;;;;;;;8.27;4.50;;;16.80;77.30;;;;;;4943041;28;20307;-69